SWA4052 KDAL-KMCO
Flight info
| Callsign | SWA4052 |
|---|---|
| Flight time | 1h 59m |
| Altitude | 35000 |
| Route | LNDRE5 ZALEA DOOMS LBY CEW J2 DEFUN GRNCH5 |
| Aircraft | B738/M-SDE2E3FGHIRWXY/LB1 |
Departure
| Time | 2026-04-20 00:44 |
|---|---|
| Airport | Dallas Love Field (KDAL) |
Arrival
| Time | 2026-04-20 02:43 |
|---|---|
| Airport | Orlando International Airport (KMCO) |
| Time | Latitude | Longitude | Altitude | Speed | Heading |
|---|---|---|---|---|---|
| 2026-04-20 00:09 | 32.84653 | -96.85040 | 495 ft | 0 kts | 180° |
| 2026-04-20 00:34 | 32.84662 | -96.85040 | 495 ft | 2 kts | 180° |
| 2026-04-20 00:34 | 32.84678 | -96.85040 | 495 ft | 2 kts | 180° |
| 2026-04-20 00:34 | 32.84694 | -96.85040 | 495 ft | 2 kts | 180° |
| 2026-04-20 00:35 | 32.84711 | -96.85038 | 495 ft | 2 kts | 206° |
| 2026-04-20 00:35 | 32.84718 | -96.85030 | 495 ft | 1 kts | 250° |
| 2026-04-20 00:35 | 32.84719 | -96.85027 | 495 ft | 0 kts | 251° |
| 2026-04-20 00:38 | 32.84718 | -96.85042 | 495 ft | 8 kts | 275° |
| 2026-04-20 00:38 | 32.84752 | -96.85078 | 495 ft | 2 kts | 352° |
| 2026-04-20 00:38 | 32.84764 | -96.85070 | 495 ft | 6 kts | 62° |
| 2026-04-20 00:38 | 32.84759 | -96.85019 | 495 ft | 8 kts | 104° |
| 2026-04-20 00:39 | 32.84749 | -96.84927 | 495 ft | 10 kts | 92° |
| 2026-04-20 00:39 | 32.84790 | -96.84890 | 495 ft | 11 kts | 332° |
| 2026-04-20 00:39 | 32.84889 | -96.84993 | 495 ft | 25 kts | 312° |
| 2026-04-20 00:39 | 32.85007 | -96.85131 | 495 ft | 19 kts | 317° |
| 2026-04-20 00:40 | 32.85079 | -96.85210 | 495 ft | 9 kts | 316° |
| 2026-04-20 00:40 | 32.85127 | -96.85263 | 495 ft | 13 kts | 317° |
| 2026-04-20 00:40 | 32.85180 | -96.85325 | 495 ft | 9 kts | 315° |
| 2026-04-20 00:40 | 32.85261 | -96.85420 | 495 ft | 20 kts | 316° |
| 2026-04-20 00:41 | 32.85357 | -96.85528 | 495 ft | 17 kts | 318° |
| 2026-04-20 00:41 | 32.85453 | -96.85632 | 495 ft | 18 kts | 317° |
| 2026-04-20 00:41 | 32.85547 | -96.85736 | 495 ft | 16 kts | 316° |
| 2026-04-20 00:41 | 32.85610 | -96.85778 | 495 ft | 6 kts | 15° |
| 2026-04-20 00:42 | 32.85642 | -96.85760 | 495 ft | 6 kts | 35° |
| 2026-04-20 00:42 | 32.85648 | -96.85754 | 495 ft | 0 kts | 39° |
| 2026-04-20 00:42 | 32.85649 | -96.85754 | 495 ft | 2 kts | 40° |
| 2026-04-20 00:42 | 32.85691 | -96.85702 | 495 ft | 10 kts | 54° |
| 2026-04-20 00:43 | 32.85693 | -96.85669 | 495 ft | 0 kts | 110° |
| 2026-04-20 00:43 | 32.85682 | -96.85637 | 495 ft | 7 kts | 124° |
| 2026-04-20 00:43 | 32.85643 | -96.85590 | 495 ft | 25 kts | 139° |
| 2026-04-20 00:43 | 32.85340 | -96.85235 | 495 ft | 95 kts | 134° |
| 2026-04-20 00:44 | 32.84714 | -96.84502 | 496 ft | 155 kts | 134° |
| 2026-04-20 00:44 | 32.83880 | -96.83509 | 965 ft | 176 kts | 133° |
| 2026-04-20 00:44 | 32.83021 | -96.82442 | 1838 ft | 181 kts | 131° |
| 2026-04-20 00:44 | 32.82157 | -96.81318 | 2646 ft | 185 kts | 130° |
| 2026-04-20 00:45 | 32.81215 | -96.80196 | 3159 ft | 202 kts | 139° |
| 2026-04-20 00:45 | 32.79998 | -96.79173 | 3482 ft | 225 kts | 143° |
| 2026-04-20 00:45 | 32.78727 | -96.78020 | 4030 ft | 233 kts | 139° |
| 2026-04-20 00:45 | 32.77502 | -96.76756 | 4775 ft | 233 kts | 137° |
| 2026-04-20 00:46 | 32.76293 | -96.75446 | 5453 ft | 238 kts | 137° |
| 2026-04-20 00:46 | 32.75077 | -96.74087 | 6047 ft | 240 kts | 135° |
| 2026-04-20 00:46 | 32.73886 | -96.72701 | 6849 ft | 243 kts | 135° |
| 2026-04-20 00:46 | 32.72637 | -96.71251 | 7353 ft | 260 kts | 135° |
| 2026-04-20 00:47 | 32.71333 | -96.69733 | 7951 ft | 270 kts | 136° |
| 2026-04-20 00:47 | 32.69987 | -96.68151 | 8683 ft | 275 kts | 135° |
| 2026-04-20 00:47 | 32.68833 | -96.66323 | 9399 ft | 282 kts | 117° |
| 2026-04-20 00:47 | 32.68274 | -96.64057 | 10071 ft | 291 kts | 100° |
| 2026-04-20 00:48 | 32.68125 | -96.61623 | 10710 ft | 300 kts | 91° |
| 2026-04-20 00:48 | 32.68147 | -96.59070 | 11069 ft | 319 kts | 90° |
| 2026-04-20 00:48 | 32.68123 | -96.56343 | 11344 ft | 340 kts | 91° |
| 2026-04-20 00:48 | 32.68093 | -96.53453 | 11613 ft | 360 kts | 89° |
| 2026-04-20 00:49 | 32.68231 | -96.50439 | 12089 ft | 370 kts | 84° |
| 2026-04-20 00:49 | 32.68509 | -96.47372 | 12730 ft | 376 kts | 82° |
| 2026-04-20 00:49 | 32.68817 | -96.44266 | 13396 ft | 381 kts | 83° |
| 2026-04-20 00:49 | 32.69075 | -96.41117 | 14053 ft | 387 kts | 83° |
| 2026-04-20 00:50 | 32.69324 | -96.37918 | 14717 ft | 392 kts | 83° |
| 2026-04-20 00:50 | 32.69559 | -96.34669 | 15381 ft | 397 kts | 85° |
| 2026-04-20 00:50 | 32.69583 | -96.31359 | 16032 ft | 404 kts | 91° |
| 2026-04-20 00:50 | 32.69403 | -96.28012 | 16662 ft | 409 kts | 93° |
| 2026-04-20 00:51 | 32.69148 | -96.24674 | 17260 ft | 415 kts | 94° |
| 2026-04-20 00:51 | 32.68901 | -96.21240 | 17859 ft | 419 kts | 93° |
| 2026-04-20 00:51 | 32.68679 | -96.17762 | 18440 ft | 425 kts | 93° |
| 2026-04-20 00:51 | 32.68449 | -96.14249 | 19009 ft | 429 kts | 93° |
| 2026-04-20 00:52 | 32.68210 | -96.10687 | 19564 ft | 434 kts | 93° |
| 2026-04-20 00:52 | 32.67963 | -96.07099 | 20134 ft | 439 kts | 93° |
| 2026-04-20 00:52 | 32.67712 | -96.03470 | 20681 ft | 443 kts | 93° |
| 2026-04-20 00:52 | 32.67459 | -95.99811 | 21199 ft | 448 kts | 93° |
| 2026-04-20 00:53 | 32.67201 | -95.96094 | 21638 ft | 454 kts | 93° |
| 2026-04-20 00:53 | 32.66939 | -95.92332 | 22130 ft | 458 kts | 93° |
| 2026-04-20 00:53 | 32.66680 | -95.88598 | 22595 ft | 462 kts | 93° |
| 2026-04-20 00:53 | 32.66412 | -95.84737 | 23068 ft | 466 kts | 93° |
| 2026-04-20 00:54 | 32.66146 | -95.80933 | 23515 ft | 470 kts | 93° |
| 2026-04-20 00:54 | 32.65872 | -95.77046 | 23947 ft | 474 kts | 93° |
| 2026-04-20 00:54 | 32.65592 | -95.73119 | 24361 ft | 479 kts | 93° |
| 2026-04-20 00:54 | 32.65307 | -95.69153 | 24757 ft | 483 kts | 94° |
| 2026-04-20 00:55 | 32.65019 | -95.65160 | 25145 ft | 487 kts | 94° |
| 2026-04-20 00:55 | 32.64727 | -95.61134 | 25520 ft | 492 kts | 94° |
| 2026-04-20 00:55 | 32.64432 | -95.57073 | 25886 ft | 496 kts | 94° |
| 2026-04-20 00:55 | 32.64133 | -95.52979 | 26257 ft | 500 kts | 94° |
| 2026-04-20 00:56 | 32.63831 | -95.48857 | 26591 ft | 504 kts | 94° |
| 2026-04-20 00:56 | 32.63529 | -95.44752 | 26921 ft | 508 kts | 94° |
| 2026-04-20 00:56 | 32.63239 | -95.40556 | 27259 ft | 511 kts | 93° |
| 2026-04-20 00:56 | 32.62950 | -95.36340 | 27566 ft | 515 kts | 94° |
| 2026-04-20 00:57 | 32.62644 | -95.32092 | 27916 ft | 518 kts | 94° |
| 2026-04-20 00:57 | 32.62336 | -95.27817 | 28232 ft | 522 kts | 94° |
| 2026-04-20 00:57 | 32.62030 | -95.23514 | 28543 ft | 525 kts | 94° |
| 2026-04-20 00:57 | 32.61708 | -95.19187 | 28824 ft | 528 kts | 94° |
| 2026-04-20 00:58 | 32.61386 | -95.14832 | 29118 ft | 531 kts | 94° |
| 2026-04-20 00:58 | 32.61185 | -95.11929 | 29314 ft | 533 kts | 94° |
| 2026-04-20 00:58 | 32.60864 | -95.07543 | 29602 ft | 536 kts | 94° |
| 2026-04-20 00:58 | 32.60528 | -95.03124 | 29939 ft | 538 kts | 95° |
| 2026-04-20 00:59 | 32.60189 | -94.98692 | 30241 ft | 540 kts | 95° |
| 2026-04-20 00:59 | 32.59840 | -94.94248 | 30607 ft | 540 kts | 94° |
| 2026-04-20 00:59 | 32.59500 | -94.89813 | 30977 ft | 540 kts | 95° |
| 2026-04-20 00:59 | 32.59147 | -94.85370 | 31295 ft | 542 kts | 95° |
| 2026-04-20 01:00 | 32.58759 | -94.80922 | 31650 ft | 542 kts | 98° |
| 2026-04-20 01:00 | 32.58128 | -94.76512 | 31985 ft | 542 kts | 103° |
| 2026-04-20 01:00 | 32.57188 | -94.72192 | 32313 ft | 541 kts | 108° |
| 2026-04-20 01:00 | 32.56024 | -94.67944 | 32615 ft | 541 kts | 111° |
| 2026-04-20 01:01 | 32.54773 | -94.63749 | 32964 ft | 540 kts | 112° |
| 2026-04-20 01:01 | 32.53545 | -94.59593 | 33254 ft | 542 kts | 112° |
| 2026-04-20 01:01 | 32.52317 | -94.55370 | 33599 ft | 541 kts | 112° |
| 2026-04-20 01:01 | 32.51100 | -94.51150 | 33926 ft | 542 kts | 112° |
| 2026-04-20 01:02 | 32.49884 | -94.46914 | 34194 ft | 543 kts | 112° |
| 2026-04-20 01:02 | 32.48669 | -94.42675 | 34504 ft | 543 kts | 112° |
| 2026-04-20 01:02 | 32.47457 | -94.38434 | 34785 ft | 544 kts | 112° |
| 2026-04-20 01:02 | 32.46272 | -94.34187 | 35082 ft | 544 kts | 112° |
| 2026-04-20 01:03 | 32.45072 | -94.29925 | 35300 ft | 547 kts | 112° |
| 2026-04-20 01:03 | 32.42629 | -94.21322 | 35320 ft | 556 kts | 112° |
| 2026-04-20 01:04 | 32.40141 | -94.12623 | 35320 ft | 559 kts | 112° |
| 2026-04-20 01:04 | 32.37644 | -94.03924 | 35320 ft | 557 kts | 112° |
| 2026-04-20 01:05 | 32.35148 | -93.95255 | 35321 ft | 556 kts | 112° |
| 2026-04-20 01:05 | 32.32661 | -93.86642 | 35320 ft | 557 kts | 112° |
| 2026-04-20 01:06 | 32.30174 | -93.77959 | 35323 ft | 557 kts | 112° |
| 2026-04-20 01:06 | 32.27657 | -93.69299 | 35325 ft | 557 kts | 112° |
| 2026-04-20 01:07 | 32.25122 | -93.60637 | 35330 ft | 557 kts | 112° |
| 2026-04-20 01:07 | 32.22586 | -93.51987 | 35332 ft | 557 kts | 112° |
| 2026-04-20 01:08 | 32.20605 | -93.43105 | 35331 ft | 561 kts | 103° |
| 2026-04-20 01:08 | 32.19400 | -93.33990 | 35333 ft | 562 kts | 100° |
| 2026-04-20 01:09 | 32.18225 | -93.24921 | 35331 ft | 563 kts | 100° |
| 2026-04-20 01:09 | 32.16998 | -93.15795 | 35330 ft | 563 kts | 101° |
| 2026-04-20 01:10 | 32.15757 | -93.06682 | 35329 ft | 563 kts | 100° |
| 2026-04-20 01:10 | 32.13945 | -92.92955 | 35327 ft | 564 kts | 100° |
| 2026-04-20 01:11 | 32.12702 | -92.83814 | 35326 ft | 564 kts | 100° |
| 2026-04-20 01:11 | 32.11443 | -92.74655 | 35325 ft | 565 kts | 101° |
| 2026-04-20 01:12 | 32.10177 | -92.65501 | 35325 ft | 566 kts | 101° |
| 2026-04-20 01:12 | 32.08910 | -92.56393 | 35323 ft | 566 kts | 101° |
| 2026-04-20 01:13 | 32.07628 | -92.47222 | 35324 ft | 567 kts | 101° |
| 2026-04-20 01:13 | 32.06335 | -92.38036 | 35321 ft | 567 kts | 101° |
| 2026-04-20 01:14 | 32.05037 | -92.28860 | 35321 ft | 567 kts | 101° |
| 2026-04-20 01:14 | 32.03739 | -92.19732 | 35323 ft | 568 kts | 101° |
| 2026-04-20 01:15 | 32.02428 | -92.10557 | 35324 ft | 568 kts | 101° |
| 2026-04-20 01:15 | 32.01106 | -92.01360 | 35326 ft | 568 kts | 101° |
| 2026-04-20 01:16 | 31.99781 | -91.92187 | 35330 ft | 568 kts | 101° |
| 2026-04-20 01:16 | 31.98449 | -91.83014 | 35329 ft | 568 kts | 101° |
| 2026-04-20 01:17 | 31.97110 | -91.73844 | 35329 ft | 568 kts | 101° |
| 2026-04-20 01:17 | 31.95772 | -91.64722 | 35329 ft | 568 kts | 101° |
| 2026-04-20 01:18 | 31.94421 | -91.55558 | 35329 ft | 569 kts | 101° |
| 2026-04-20 01:18 | 31.93090 | -91.46386 | 35330 ft | 567 kts | 101° |
| 2026-04-20 01:19 | 31.91723 | -91.37249 | 35331 ft | 567 kts | 102° |
| 2026-04-20 01:19 | 31.90342 | -91.28110 | 35327 ft | 567 kts | 102° |
| 2026-04-20 01:20 | 31.88969 | -91.19044 | 35329 ft | 566 kts | 102° |
| 2026-04-20 01:20 | 31.87163 | -91.10055 | 35329 ft | 564 kts | 109° |
| 2026-04-20 01:21 | 31.84853 | -91.01217 | 35329 ft | 563 kts | 110° |
| 2026-04-20 01:21 | 31.82582 | -90.92406 | 35331 ft | 563 kts | 109° |
| 2026-04-20 01:22 | 31.80353 | -90.83624 | 35331 ft | 564 kts | 109° |
| 2026-04-20 01:22 | 31.78137 | -90.74780 | 35333 ft | 564 kts | 109° |
| 2026-04-20 01:23 | 31.75941 | -90.65926 | 35335 ft | 564 kts | 109° |
| 2026-04-20 01:23 | 31.73715 | -90.57061 | 35337 ft | 565 kts | 109° |
| 2026-04-20 01:24 | 31.71482 | -90.48222 | 35339 ft | 565 kts | 109° |
| 2026-04-20 01:24 | 31.69240 | -90.39382 | 35337 ft | 565 kts | 110° |
| 2026-04-20 01:25 | 31.66983 | -90.30516 | 35339 ft | 565 kts | 110° |
| 2026-04-20 01:25 | 31.64739 | -90.21727 | 35338 ft | 565 kts | 110° |
| 2026-04-20 01:26 | 31.62477 | -90.12900 | 35338 ft | 565 kts | 110° |
| 2026-04-20 01:26 | 31.60207 | -90.04062 | 35336 ft | 565 kts | 110° |
| 2026-04-20 01:27 | 31.57934 | -89.95238 | 35319 ft | 565 kts | 110° |
| 2026-04-20 01:27 | 31.55653 | -89.86425 | 35308 ft | 565 kts | 110° |
| 2026-04-20 01:28 | 31.53381 | -89.77664 | 35316 ft | 564 kts | 110° |
| 2026-04-20 01:28 | 31.51095 | -89.68861 | 35326 ft | 564 kts | 110° |
| 2026-04-20 01:29 | 31.48825 | -89.60071 | 35327 ft | 563 kts | 110° |
| 2026-04-20 01:29 | 31.46519 | -89.51298 | 35328 ft | 562 kts | 110° |
| 2026-04-20 01:30 | 31.44211 | -89.42552 | 35328 ft | 562 kts | 110° |
| 2026-04-20 01:30 | 31.41899 | -89.33797 | 35329 ft | 562 kts | 110° |
| 2026-04-20 01:31 | 31.39900 | -89.24937 | 35328 ft | 564 kts | 106° |
| 2026-04-20 01:31 | 31.38076 | -89.16079 | 35324 ft | 563 kts | 106° |
| 2026-04-20 01:32 | 31.36188 | -89.07197 | 35323 ft | 563 kts | 107° |
| 2026-04-20 01:32 | 31.34276 | -88.98311 | 35322 ft | 561 kts | 107° |
| 2026-04-20 01:33 | 31.32389 | -88.89427 | 35322 ft | 561 kts | 107° |
| 2026-04-20 01:33 | 31.30516 | -88.80616 | 35319 ft | 561 kts | 107° |
| 2026-04-20 01:34 | 31.28607 | -88.71759 | 35317 ft | 561 kts | 107° |
| 2026-04-20 01:34 | 31.26682 | -88.62888 | 35316 ft | 561 kts | 107° |
| 2026-04-20 01:35 | 31.24755 | -88.54041 | 35305 ft | 561 kts | 107° |
| 2026-04-20 01:35 | 31.22835 | -88.45259 | 35302 ft | 561 kts | 107° |
| 2026-04-20 01:36 | 31.20891 | -88.36405 | 35301 ft | 561 kts | 107° |
| 2026-04-20 01:36 | 31.18943 | -88.27561 | 35299 ft | 561 kts | 107° |
| 2026-04-20 01:37 | 31.16992 | -88.18735 | 35301 ft | 561 kts | 107° |
| 2026-04-20 01:37 | 31.15036 | -88.09915 | 35300 ft | 561 kts | 107° |
| 2026-04-20 01:38 | 31.13073 | -88.01096 | 35297 ft | 561 kts | 107° |
| 2026-04-20 01:38 | 31.11118 | -87.92340 | 35296 ft | 559 kts | 108° |
| 2026-04-20 01:39 | 31.09147 | -87.83547 | 35293 ft | 559 kts | 108° |
| 2026-04-20 01:39 | 31.07174 | -87.74776 | 35290 ft | 559 kts | 108° |
| 2026-04-20 01:40 | 31.05197 | -87.66013 | 35286 ft | 559 kts | 108° |
| 2026-04-20 01:40 | 31.03215 | -87.57260 | 35282 ft | 558 kts | 108° |
| 2026-04-20 01:41 | 31.01228 | -87.48513 | 35277 ft | 558 kts | 108° |
| 2026-04-20 01:41 | 30.99250 | -87.39837 | 35275 ft | 558 kts | 108° |
| 2026-04-20 01:42 | 30.97251 | -87.31099 | 35272 ft | 558 kts | 108° |
| 2026-04-20 01:42 | 30.95245 | -87.22357 | 35266 ft | 558 kts | 108° |
| 2026-04-20 01:43 | 30.93239 | -87.13634 | 35264 ft | 557 kts | 108° |
| 2026-04-20 01:43 | 30.91222 | -87.04913 | 35262 ft | 558 kts | 108° |
| 2026-04-20 01:44 | 30.89224 | -86.96171 | 35263 ft | 558 kts | 108° |
| 2026-04-20 01:44 | 30.87191 | -86.87460 | 35267 ft | 557 kts | 108° |
| 2026-04-20 01:45 | 30.85167 | -86.78825 | 35270 ft | 556 kts | 108° |
| 2026-04-20 01:45 | 30.83224 | -86.70098 | 35275 ft | 558 kts | 104° |
| 2026-04-20 01:46 | 30.82269 | -86.61115 | 35279 ft | 560 kts | 93° |
| 2026-04-20 01:46 | 30.82205 | -86.52044 | 35279 ft | 559 kts | 91° |
| 2026-04-20 01:47 | 30.82130 | -86.44521 | 35280 ft | 559 kts | 91° |
| 2026-04-20 01:47 | 30.81938 | -86.35473 | 35281 ft | 559 kts | 92° |
| 2026-04-20 01:48 | 30.81723 | -86.26426 | 35281 ft | 559 kts | 92° |
| 2026-04-20 01:48 | 30.81505 | -86.17425 | 35280 ft | 559 kts | 92° |
| 2026-04-20 01:49 | 30.81449 | -86.08374 | 35278 ft | 559 kts | 87° |
| 2026-04-20 01:49 | 30.81830 | -85.99336 | 35275 ft | 559 kts | 86° |
| 2026-04-20 01:50 | 30.82164 | -85.90274 | 35272 ft | 559 kts | 87° |
| 2026-04-20 01:50 | 30.82467 | -85.81237 | 35260 ft | 559 kts | 87° |
| 2026-04-20 01:51 | 30.82761 | -85.72181 | 35249 ft | 559 kts | 87° |
| 2026-04-20 01:51 | 30.83099 | -85.63140 | 35237 ft | 559 kts | 87° |
| 2026-04-20 01:52 | 30.83402 | -85.54155 | 35236 ft | 559 kts | 87° |
| 2026-04-20 01:52 | 30.83691 | -85.45098 | 35245 ft | 560 kts | 87° |
| 2026-04-20 01:53 | 30.83971 | -85.36053 | 35247 ft | 560 kts | 88° |
| 2026-04-20 01:53 | 30.84244 | -85.26987 | 35243 ft | 561 kts | 88° |
| 2026-04-20 01:54 | 30.84513 | -85.17914 | 35238 ft | 560 kts | 87° |
| 2026-04-20 01:54 | 30.84773 | -85.08835 | 35241 ft | 561 kts | 88° |
| 2026-04-20 01:55 | 30.85027 | -84.99756 | 35247 ft | 561 kts | 88° |
| 2026-04-20 01:55 | 30.85273 | -84.90744 | 35254 ft | 561 kts | 88° |
| 2026-04-20 01:56 | 30.85515 | -84.81665 | 35262 ft | 561 kts | 88° |
| 2026-04-20 01:56 | 30.85750 | -84.72583 | 35265 ft | 561 kts | 88° |
| 2026-04-20 01:57 | 30.85979 | -84.63509 | 35269 ft | 561 kts | 88° |
| 2026-04-20 01:57 | 30.86200 | -84.54507 | 35268 ft | 560 kts | 88° |
| 2026-04-20 01:58 | 30.86416 | -84.45441 | 35264 ft | 560 kts | 88° |
| 2026-04-20 01:58 | 30.86626 | -84.36380 | 35261 ft | 560 kts | 88° |
| 2026-04-20 01:59 | 30.86854 | -84.27320 | 35263 ft | 560 kts | 88° |
| 2026-04-20 01:59 | 30.87053 | -84.18257 | 35257 ft | 560 kts | 88° |
| 2026-04-20 02:00 | 30.87231 | -84.09188 | 35252 ft | 560 kts | 88° |
| 2026-04-20 02:00 | 30.87407 | -84.00126 | 35246 ft | 560 kts | 88° |
| 2026-04-20 02:01 | 30.87579 | -83.91078 | 35249 ft | 559 kts | 88° |
| 2026-04-20 02:01 | 30.87740 | -83.82018 | 35250 ft | 559 kts | 89° |
| 2026-04-20 02:02 | 30.87891 | -83.72974 | 35245 ft | 559 kts | 89° |
| 2026-04-20 02:02 | 30.88036 | -83.63926 | 35238 ft | 559 kts | 89° |
| 2026-04-20 02:03 | 30.88176 | -83.54928 | 35229 ft | 560 kts | 88° |
| 2026-04-20 02:03 | 30.88360 | -83.45860 | 35220 ft | 560 kts | 88° |
| 2026-04-20 02:04 | 30.88509 | -83.36789 | 35211 ft | 560 kts | 89° |
| 2026-04-20 02:04 | 30.88646 | -83.27712 | 35204 ft | 560 kts | 89° |
| 2026-04-20 02:05 | 30.88797 | -83.18650 | 35193 ft | 559 kts | 89° |
| 2026-04-20 02:05 | 30.88920 | -83.09608 | 35188 ft | 559 kts | 89° |
| 2026-04-20 02:06 | 30.89024 | -83.00550 | 35195 ft | 559 kts | 89° |
| 2026-04-20 02:06 | 30.88732 | -82.91537 | 35185 ft | 557 kts | 103° |
| 2026-04-20 02:07 | 30.87606 | -82.87251 | 35192 ft | 550 kts | 116° |
| 2026-04-20 02:07 | 30.85777 | -82.83399 | 35199 ft | 539 kts | 130° |
| 2026-04-20 02:07 | 30.83391 | -82.80099 | 35213 ft | 528 kts | 141° |
| 2026-04-20 02:07 | 30.80674 | -82.77289 | 35217 ft | 518 kts | 149° |
| 2026-04-20 02:08 | 30.74903 | -82.72475 | 35219 ft | 513 kts | 154° |
| 2026-04-20 02:08 | 30.69130 | -82.67545 | 35212 ft | 515 kts | 152° |
| 2026-04-20 02:09 | 30.63423 | -82.62471 | 35209 ft | 517 kts | 151° |
| 2026-04-20 02:09 | 30.57723 | -82.57338 | 35206 ft | 518 kts | 151° |
| 2026-04-20 02:10 | 30.52031 | -82.52221 | 35205 ft | 518 kts | 151° |
| 2026-04-20 02:10 | 30.46328 | -82.47110 | 35202 ft | 518 kts | 151° |
| 2026-04-20 02:11 | 30.40658 | -82.42012 | 35197 ft | 519 kts | 151° |
| 2026-04-20 02:11 | 30.34937 | -82.36906 | 35196 ft | 519 kts | 151° |
| 2026-04-20 02:12 | 30.29216 | -82.31813 | 35188 ft | 519 kts | 151° |
| 2026-04-20 02:12 | 30.23457 | -82.26794 | 35181 ft | 512 kts | 156° |
| 2026-04-20 02:13 | 30.20393 | -82.24787 | 35180 ft | 501 kts | 164° |
| 2026-04-20 02:13 | 30.17197 | -82.23307 | 35176 ft | 489 kts | 172° |
| 2026-04-20 02:13 | 30.10666 | -82.21696 | 35148 ft | 475 kts | 182° |
| 2026-04-20 02:14 | 30.07389 | -82.21130 | 34714 ft | 477 kts | 181° |
| 2026-04-20 02:14 | 30.04115 | -82.20511 | 33955 ft | 477 kts | 181° |
| 2026-04-20 02:14 | 30.00842 | -82.19872 | 33168 ft | 478 kts | 180° |
| 2026-04-20 02:14 | 29.97588 | -82.19232 | 32376 ft | 479 kts | 180° |
| 2026-04-20 02:15 | 29.94303 | -82.18584 | 31555 ft | 480 kts | 180° |
| 2026-04-20 02:15 | 29.91001 | -82.17932 | 30712 ft | 481 kts | 180° |
| 2026-04-20 02:15 | 29.87713 | -82.17277 | 30062 ft | 477 kts | 180° |
| 2026-04-20 02:15 | 29.84454 | -82.16627 | 29450 ft | 472 kts | 179° |
| 2026-04-20 02:16 | 29.81227 | -82.15985 | 28857 ft | 468 kts | 179° |
| 2026-04-20 02:16 | 29.78039 | -82.15346 | 28268 ft | 463 kts | 179° |
| 2026-04-20 02:16 | 29.74871 | -82.14713 | 27681 ft | 459 kts | 179° |
| 2026-04-20 02:16 | 29.71737 | -82.14088 | 27097 ft | 455 kts | 179° |
| 2026-04-20 02:17 | 29.68629 | -82.13470 | 26515 ft | 450 kts | 179° |
| 2026-04-20 02:17 | 29.65580 | -82.12865 | 25939 ft | 446 kts | 178° |
| 2026-04-20 02:17 | 29.62531 | -82.12260 | 25358 ft | 442 kts | 178° |
| 2026-04-20 02:17 | 29.59511 | -82.11661 | 24782 ft | 438 kts | 178° |
| 2026-04-20 02:18 | 29.56511 | -82.11067 | 24205 ft | 434 kts | 178° |
| 2026-04-20 02:18 | 29.53541 | -82.10478 | 23631 ft | 431 kts | 178° |
| 2026-04-20 02:18 | 29.50606 | -82.09897 | 23060 ft | 427 kts | 177° |
| 2026-04-20 02:18 | 29.47683 | -82.09318 | 22489 ft | 423 kts | 177° |
| 2026-04-20 02:19 | 29.44793 | -82.08745 | 21924 ft | 420 kts | 177° |
| 2026-04-20 02:19 | 29.41924 | -82.08178 | 21360 ft | 416 kts | 177° |
| 2026-04-20 02:19 | 29.39120 | -82.07624 | 20799 ft | 413 kts | 177° |
| 2026-04-20 02:19 | 29.36296 | -82.07070 | 20236 ft | 409 kts | 177° |
| 2026-04-20 02:20 | 29.33505 | -82.06481 | 19713 ft | 408 kts | 174° |
| 2026-04-20 02:20 | 29.30798 | -82.05573 | 19579 ft | 400 kts | 167° |
| 2026-04-20 02:20 | 29.28244 | -82.04345 | 19172 ft | 399 kts | 161° |
| 2026-04-20 02:20 | 29.25767 | -82.02906 | 18652 ft | 399 kts | 158° |
| 2026-04-20 02:21 | 29.20937 | -81.99820 | 17630 ft | 395 kts | 157° |
| 2026-04-20 02:21 | 29.18535 | -81.98299 | 17126 ft | 393 kts | 157° |
| 2026-04-20 02:21 | 29.16140 | -81.96791 | 16624 ft | 391 kts | 156° |
| 2026-04-20 02:22 | 29.13769 | -81.95301 | 16125 ft | 388 kts | 156° |
| 2026-04-20 02:22 | 29.11391 | -81.93809 | 15501 ft | 389 kts | 156° |
| 2026-04-20 02:22 | 29.09056 | -81.92341 | 14997 ft | 387 kts | 154° |
| 2026-04-20 02:22 | 29.06754 | -81.90665 | 14489 ft | 387 kts | 148° |
| 2026-04-20 02:23 | 29.04686 | -81.88773 | 13999 ft | 387 kts | 141° |
| 2026-04-20 02:23 | 29.02761 | -81.86635 | 13505 ft | 385 kts | 137° |
| 2026-04-20 02:23 | 29.00850 | -81.84508 | 13014 ft | 381 kts | 139° |
| 2026-04-20 02:23 | 28.98953 | -81.82448 | 12735 ft | 364 kts | 137° |
| 2026-04-20 02:24 | 28.97288 | -81.80353 | 12552 ft | 352 kts | 131° |
| 2026-04-20 02:24 | 28.95779 | -81.78150 | 12121 ft | 351 kts | 128° |
| 2026-04-20 02:24 | 28.94311 | -81.75923 | 11690 ft | 350 kts | 128° |
| 2026-04-20 02:24 | 28.92837 | -81.73713 | 11265 ft | 348 kts | 128° |
| 2026-04-20 02:25 | 28.91363 | -81.71527 | 10841 ft | 347 kts | 128° |
| 2026-04-20 02:25 | 28.89895 | -81.69353 | 10419 ft | 345 kts | 128° |
| 2026-04-20 02:25 | 28.88447 | -81.67209 | 10259 ft | 334 kts | 128° |
| 2026-04-20 02:25 | 28.87057 | -81.65146 | 10188 ft | 322 kts | 128° |
| 2026-04-20 02:26 | 28.85712 | -81.63153 | 10112 ft | 310 kts | 128° |
| 2026-04-20 02:26 | 28.84433 | -81.61263 | 10036 ft | 300 kts | 128° |
| 2026-04-20 02:26 | 28.83181 | -81.59414 | 9878 ft | 292 kts | 128° |
| 2026-04-20 02:26 | 28.81939 | -81.57582 | 9568 ft | 291 kts | 128° |
| 2026-04-20 02:27 | 28.80699 | -81.55767 | 9253 ft | 290 kts | 130° |
| 2026-04-20 02:27 | 28.79259 | -81.54183 | 9053 ft | 286 kts | 142° |
| 2026-04-20 02:27 | 28.77610 | -81.52924 | 8922 ft | 283 kts | 150° |
| 2026-04-20 02:27 | 28.75883 | -81.51859 | 8832 ft | 282 kts | 153° |
| 2026-04-20 02:28 | 28.74134 | -81.50857 | 8745 ft | 280 kts | 154° |
| 2026-04-20 02:28 | 28.72390 | -81.49845 | 8662 ft | 281 kts | 153° |
| 2026-04-20 02:28 | 28.70652 | -81.48819 | 8581 ft | 283 kts | 153° |
| 2026-04-20 02:28 | 28.68904 | -81.47781 | 8499 ft | 282 kts | 153° |
| 2026-04-20 02:29 | 28.67170 | -81.46746 | 8420 ft | 282 kts | 153° |
| 2026-04-20 02:29 | 28.65427 | -81.45704 | 8342 ft | 282 kts | 153° |
| 2026-04-20 02:29 | 28.63692 | -81.44667 | 8271 ft | 281 kts | 153° |
| 2026-04-20 02:29 | 28.61958 | -81.43638 | 8193 ft | 280 kts | 155° |
| 2026-04-20 02:30 | 28.60156 | -81.42854 | 8118 ft | 276 kts | 164° |
| 2026-04-20 02:30 | 28.58309 | -81.42382 | 8043 ft | 266 kts | 172° |
| 2026-04-20 02:30 | 28.56485 | -81.42257 | 7962 ft | 261 kts | 182° |
| 2026-04-20 02:30 | 28.54693 | -81.42315 | 7694 ft | 260 kts | 182° |
| 2026-04-20 02:31 | 28.52891 | -81.42360 | 7441 ft | 258 kts | 181° |
| 2026-04-20 02:31 | 28.51084 | -81.42386 | 7194 ft | 255 kts | 181° |
| 2026-04-20 02:31 | 28.49339 | -81.42400 | 6957 ft | 253 kts | 181° |
| 2026-04-20 02:31 | 28.47590 | -81.42408 | 6715 ft | 251 kts | 181° |
| 2026-04-20 02:32 | 28.45827 | -81.42412 | 6479 ft | 249 kts | 180° |
| 2026-04-20 02:32 | 28.44102 | -81.42415 | 6250 ft | 248 kts | 180° |
| 2026-04-20 02:32 | 28.42384 | -81.42415 | 6019 ft | 247 kts | 180° |
| 2026-04-20 02:32 | 28.40689 | -81.42415 | 5792 ft | 247 kts | 180° |
| 2026-04-20 02:33 | 28.38975 | -81.42416 | 5560 ft | 246 kts | 180° |
| 2026-04-20 02:33 | 28.37268 | -81.42416 | 5329 ft | 245 kts | 180° |
| 2026-04-20 02:33 | 28.35576 | -81.42416 | 5100 ft | 242 kts | 181° |
| 2026-04-20 02:33 | 28.33908 | -81.42418 | 4915 ft | 237 kts | 181° |
| 2026-04-20 02:34 | 28.32268 | -81.42419 | 4677 ft | 235 kts | 181° |
| 2026-04-20 02:34 | 28.30644 | -81.42421 | 4461 ft | 235 kts | 181° |
| 2026-04-20 02:34 | 28.29015 | -81.42421 | 4226 ft | 234 kts | 181° |
| 2026-04-20 02:34 | 28.27397 | -81.42414 | 3983 ft | 232 kts | 181° |
| 2026-04-20 02:35 | 28.26326 | -81.42407 | 3822 ft | 232 kts | 181° |
| 2026-04-20 02:35 | 28.24705 | -81.42387 | 3587 ft | 233 kts | 179° |
| 2026-04-20 02:35 | 28.23163 | -81.41898 | 3318 ft | 233 kts | 148° |
| 2026-04-20 02:35 | 28.21948 | -81.40690 | 3106 ft | 233 kts | 135° |
| 2026-04-20 02:36 | 28.20817 | -81.39377 | 3000 ft | 232 kts | 134° |
| 2026-04-20 02:36 | 28.19694 | -81.38062 | 2992 ft | 231 kts | 134° |
| 2026-04-20 02:36 | 28.18628 | -81.36709 | 2988 ft | 231 kts | 124° |
| 2026-04-20 02:36 | 28.18091 | -81.35017 | 2989 ft | 230 kts | 98° |
| 2026-04-20 02:37 | 28.17898 | -81.33212 | 3009 ft | 231 kts | 95° |
| 2026-04-20 02:37 | 28.17817 | -81.31395 | 2990 ft | 230 kts | 83° |
| 2026-04-20 02:37 | 28.18452 | -81.29806 | 2952 ft | 222 kts | 44° |
| 2026-04-20 02:37 | 28.19718 | -81.28928 | 2989 ft | 208 kts | 20° |
| 2026-04-20 02:38 | 28.21089 | -81.28520 | 3007 ft | 200 kts | 8° |
| 2026-04-20 02:38 | 28.22457 | -81.28339 | 3000 ft | 196 kts | 4° |
| 2026-04-20 02:38 | 28.23803 | -81.28191 | 2997 ft | 193 kts | 2° |
| 2026-04-20 02:38 | 28.25136 | -81.28115 | 2995 ft | 191 kts | 360° |
| 2026-04-20 02:39 | 28.26423 | -81.28095 | 2964 ft | 179 kts | 358° |
| 2026-04-20 02:39 | 28.27625 | -81.28095 | 2846 ft | 169 kts | 358° |
| 2026-04-20 02:39 | 28.28778 | -81.28102 | 2626 ft | 162 kts | 358° |
| 2026-04-20 02:39 | 28.29870 | -81.28111 | 2414 ft | 151 kts | 357° |
| 2026-04-20 02:40 | 28.30883 | -81.28120 | 2223 ft | 141 kts | 357° |
| 2026-04-20 02:40 | 28.31840 | -81.28130 | 2038 ft | 136 kts | 357° |
| 2026-04-20 02:40 | 28.32782 | -81.28139 | 1865 ft | 135 kts | 357° |
| 2026-04-20 02:40 | 28.33719 | -81.28149 | 1690 ft | 135 kts | 357° |
| 2026-04-20 02:41 | 28.34660 | -81.28158 | 1512 ft | 136 kts | 357° |
| 2026-04-20 02:41 | 28.35594 | -81.28168 | 1328 ft | 136 kts | 357° |
| 2026-04-20 02:41 | 28.36548 | -81.28178 | 1151 ft | 137 kts | 357° |
| 2026-04-20 02:41 | 28.37502 | -81.28187 | 971 ft | 138 kts | 357° |
| 2026-04-20 02:42 | 28.38466 | -81.28197 | 786 ft | 138 kts | 357° |
| 2026-04-20 02:42 | 28.39412 | -81.28207 | 593 ft | 134 kts | 357° |
| 2026-04-20 02:42 | 28.40345 | -81.28217 | 428 ft | 134 kts | 357° |
| 2026-04-20 02:42 | 28.41272 | -81.28228 | 296 ft | 132 kts | 357° |
| 2026-04-20 02:43 | 28.42174 | -81.28211 | 116 ft | 126 kts | 347° |
| 2026-04-20 02:43 | 28.43054 | -81.28240 | 107 ft | 130 kts | 355° |
| 2026-04-20 02:43 | 28.43981 | -81.28255 | 106 ft | 128 kts | 0° |
| 2026-04-20 02:43 | 28.44477 | -81.28248 | 104 ft | 18 kts | 1° |
| 2026-04-20 02:44 | 28.44500 | -81.28303 | 104 ft | 1 kts | 184° |
| 2026-04-20 02:44 | 28.44498 | -81.28302 | 104 ft | 3 kts | 180° |
| 2026-04-20 02:44 | 28.44420 | -81.28300 | 104 ft | 15 kts | 179° |
| 2026-04-20 02:44 | 28.44366 | -81.28335 | 104 ft | 5 kts | 250° |
| 2026-04-20 02:45 | 28.44309 | -81.28396 | 104 ft | 16 kts | 175° |
| 2026-04-20 02:45 | 28.44275 | -81.28391 | 104 ft | 6 kts | 172° |
| 2026-04-20 02:45 | 28.44189 | -81.28378 | 104 ft | 11 kts | 179° |
| 2026-04-20 02:45 | 28.44117 | -81.28378 | 104 ft | 14 kts | 181° |
| 2026-04-20 02:46 | 28.44040 | -81.28380 | 104 ft | 7 kts | 180° |
| 2026-04-20 02:46 | 28.43965 | -81.28377 | 104 ft | 10 kts | 179° |
| 2026-04-20 02:46 | 28.43893 | -81.28389 | 104 ft | 15 kts | 216° |
| 2026-04-20 02:46 | 28.43873 | -81.28496 | 104 ft | 18 kts | 270° |
| 2026-04-20 02:47 | 28.43870 | -81.28645 | 104 ft | 18 kts | 266° |
| 2026-04-20 02:47 | 28.43867 | -81.28803 | 104 ft | 20 kts | 270° |
| 2026-04-20 02:47 | 28.43869 | -81.28940 | 104 ft | 18 kts | 271° |
| 2026-04-20 02:47 | 28.43870 | -81.29094 | 104 ft | 18 kts | 270° |
| 2026-04-20 02:48 | 28.43868 | -81.29213 | 104 ft | 14 kts | 262° |
| 2026-04-20 02:48 | 28.43789 | -81.29261 | 104 ft | 16 kts | 180° |
| 2026-04-20 02:48 | 28.43672 | -81.29261 | 104 ft | 15 kts | 180° |
| 2026-04-20 02:48 | 28.43577 | -81.29273 | 104 ft | 15 kts | 216° |
| 2026-04-20 02:49 | 28.43552 | -81.29386 | 104 ft | 17 kts | 268° |
| 2026-04-20 02:49 | 28.43549 | -81.29528 | 104 ft | 19 kts | 269° |
| 2026-04-20 02:49 | 28.43549 | -81.29676 | 104 ft | 18 kts | 269° |
| 2026-04-20 02:49 | 28.43547 | -81.29817 | 104 ft | 17 kts | 269° |
| 2026-04-20 02:50 | 28.43546 | -81.29865 | 104 ft | 0 kts | 268° |
| 2026-04-20 02:50 | 28.43546 | -81.29866 | 104 ft | 2 kts | 264° |
| 2026-04-20 02:50 | 28.43489 | -81.29888 | 104 ft | 19 kts | 186° |
| 2026-04-20 02:50 | 28.43385 | -81.29888 | 104 ft | 11 kts | 180° |
| 2026-04-20 02:51 | 28.43315 | -81.29916 | 104 ft | 10 kts | 244° |
| 2026-04-20 02:51 | 28.43285 | -81.30004 | 104 ft | 15 kts | 248° |
| 2026-04-20 02:51 | 28.43289 | -81.30109 | 104 ft | 16 kts | 292° |
| 2026-04-20 02:51 | 28.43351 | -81.30194 | 104 ft | 9 kts | 353° |
| 2026-04-20 02:52 | 28.43370 | -81.30186 | 104 ft | 0 kts | 44° |
| 2026-04-20 02:52 | 28.43373 | -81.30183 | 104 ft | 5 kts | 44° |
| 2026-04-20 02:52 | 28.43395 | -81.30148 | 104 ft | 1 kts | 60° |
| 2026-04-20 02:52 | 28.43405 | -81.30127 | 104 ft | 3 kts | 64° |
| 2026-04-20 02:53 | 28.43406 | -81.30124 | 104 ft | 0 kts | 64° |
| 2026-04-20 02:53 | 28.43404 | -81.30130 | 104 ft | 0 kts | 64° |